createdAt,value
2023-01-20T00:08:31.450Z,25.8056640625
2023-01-20T00:18:31.361Z,26.0986328125
2023-01-20T00:28:31.287Z,24.30419921875
2023-01-20T00:38:31.176Z,24.59716796875
2023-01-20T00:48:31.202Z,24.90234375
2023-01-20T00:58:31.059Z,25.1953125
2023-01-20T01:08:31.014Z,25.29296875
2023-01-20T01:18:30.928Z,25.7080078125
2023-01-20T01:28:30.841Z,25.8056640625
2023-01-20T01:38:30.784Z,25.48828125
2023-01-20T01:48:30.691Z,24.59716796875
2023-01-20T01:58:30.657Z,23.8037109375
2023-01-20T02:08:30.528Z,24.40185546875
2023-01-20T02:18:30.452Z,24.30419921875
2023-01-20T02:28:30.413Z,24.69482421875
2023-01-20T02:38:30.338Z,24.1943359375
2023-01-20T02:48:30.348Z,24.40185546875
2023-01-20T02:58:30.174Z,23.9990234375
2023-01-20T03:08:30.086Z,23.59619140625
2023-01-20T03:18:30.045Z,23.59619140625
2023-01-20T03:28:29.945Z,23.20556640625
2023-01-20T03:38:29.894Z,22.900390625
2023-01-20T03:48:29.787Z,22.30224609375
2023-01-20T03:58:29.733Z,21.9970703125
2023-01-20T04:08:29.692Z,21.9970703125
2023-01-20T04:18:29.580Z,22.20458984375
2023-01-20T04:28:29.530Z,21.49658203125
2023-01-20T04:38:29.450Z,21.20361328125
2023-01-20T04:48:29.388Z,20.703125
2023-01-20T04:58:29.298Z,21.10595703125
2023-01-20T05:08:29.213Z,21.30126953125
2023-01-20T05:18:29.258Z,21.30126953125
2023-01-20T05:28:29.079Z,21.10595703125
2023-01-20T05:38:29.039Z,20.99609375
2023-01-20T05:48:28.935Z,21.10595703125
2023-01-20T05:58:28.851Z,21.30126953125
2023-01-20T06:08:28.871Z,21.20361328125
2023-01-20T06:18:28.725Z,20.703125
2023-01-20T06:28:28.769Z,20.49560546875
2023-01-20T06:38:28.577Z,20.20263671875
2023-01-20T06:48:28.512Z,20.20263671875
2023-01-20T06:58:28.461Z,19.9951171875
2023-01-20T07:08:28.332Z,19.7021484375
2023-01-20T07:18:28.408Z,19.6044921875
2023-01-20T07:28:28.178Z,19.49462890625
2023-01-20T07:38:28.144Z,19.29931640625
2023-01-20T07:48:28.077Z,19.20166015625
2023-01-20T07:58:28.000Z,19.20166015625
2023-01-20T08:08:27.919Z,19.10400390625
2023-01-20T08:18:27.837Z,18.896484375
2023-01-20T08:28:28.167Z,18.896484375
2023-01-20T08:38:27.790Z,18.896484375
2023-01-20T08:48:27.595Z,18.896484375
2023-01-20T08:58:27.539Z,18.701171875
2023-01-20T09:08:27.448Z,18.798828125
2023-01-20T09:18:27.427Z,18.994140625
2023-01-20T09:28:29.123Z,18.798828125
2023-01-20T09:38:27.238Z,18.701171875
2023-01-20T09:48:27.220Z,18.701171875
2023-01-20T09:58:27.105Z,18.603515625
2023-01-20T10:08:27.018Z,18.603515625
2023-01-20T10:18:26.999Z,18.603515625
2023-01-20T10:28:26.996Z,18.603515625
2023-01-20T10:38:26.915Z,18.896484375
2023-01-20T10:48:26.742Z,18.701171875
2023-01-20T10:58:26.682Z,18.701171875
2023-01-20T11:08:26.700Z,18.701171875
2023-01-20T11:18:26.533Z,18.505859375
2023-01-20T11:28:26.457Z,18.39599609375
2023-01-20T11:38:26.382Z,18.505859375
2023-01-20T11:48:26.287Z,18.701171875
2023-01-20T11:58:26.201Z,18.603515625
2023-01-20T12:08:26.157Z,18.701171875
2023-01-20T12:18:26.069Z,18.603515625
2023-01-20T12:28:26.062Z,18.603515625
2023-01-20T12:38:25.897Z,18.603515625
2023-01-20T12:48:25.817Z,18.701171875
2023-01-20T12:58:25.778Z,18.603515625
2023-01-20T13:08:25.701Z,18.603515625
2023-01-20T13:18:25.626Z,18.505859375
2023-01-20T13:28:25.555Z,18.39599609375
2023-01-20T13:38:25.445Z,18.39599609375
2023-01-20T13:48:25.373Z,18.505859375
2023-01-20T13:58:25.301Z,18.505859375
2023-01-20T14:08:25.228Z,18.505859375
2023-01-20T14:18:25.166Z,18.39599609375
2023-01-20T14:28:25.099Z,18.505859375
2023-01-20T14:38:25.131Z,18.505859375
2023-01-20T14:48:34.644Z,18.29833984375
2023-01-20T14:58:24.840Z,18.29833984375
2023-01-20T15:08:26.295Z,18.20068359375
2023-01-20T15:18:24.748Z,18.10302734375
2023-01-20T15:28:24.631Z,18.10302734375
2023-01-20T15:38:24.557Z,18.00537109375
2023-01-20T15:48:24.473Z,17.7978515625
2023-01-20T15:58:24.404Z,17.7001953125
2023-01-20T16:08:24.432Z,17.39501953125
2023-01-20T16:18:24.235Z,17.29736328125
2023-01-20T16:28:24.213Z,17.19970703125
2023-01-20T16:38:24.102Z,17.10205078125
2023-01-20T16:48:24.154Z,16.89453125
2023-01-20T16:58:23.949Z,16.50390625
2023-01-20T17:08:23.884Z,16.29638671875
2023-01-20T17:18:23.846Z,16.29638671875
2023-01-20T17:28:23.777Z,16.19873046875
2023-01-20T17:38:23.713Z,16.10107421875
2023-01-20T17:48:23.605Z,16.10107421875
2023-01-20T17:58:23.565Z,16.10107421875
2023-01-20T18:08:23.458Z,16.00341796875
2023-01-20T18:18:23.418Z,16.00341796875
2023-01-20T18:28:23.325Z,16.10107421875
2023-01-20T18:38:23.237Z,16.00341796875
2023-01-20T18:48:23.174Z,16.19873046875
2023-01-20T18:58:23.099Z,16.6015625
2023-01-20T19:08:23.021Z,16.796875
2023-01-20T19:18:22.983Z,17.00439453125
2023-01-20T19:28:22.911Z,17.6025390625
2023-01-20T19:38:22.824Z,17.39501953125
2023-01-20T19:48:22.760Z,17.39501953125
2023-01-20T19:58:22.689Z,18.00537109375
2023-01-20T20:08:22.615Z,18.505859375
2023-01-20T20:18:22.507Z,18.29833984375
2023-01-20T20:28:22.445Z,18.798828125
2023-01-20T20:38:22.381Z,18.896484375
2023-01-20T20:48:22.291Z,19.7998046875
2023-01-20T20:58:22.255Z,19.8974609375
2023-01-20T21:08:22.147Z,20.49560546875
2023-01-20T21:18:22.284Z,20.30029296875
2023-01-20T21:28:22.011Z,21.49658203125
2023-01-20T21:38:21.955Z,21.7041015625
2023-01-20T21:48:21.870Z,21.7041015625
2023-01-20T21:58:21.773Z,22.30224609375
2023-01-20T22:08:21.732Z,22.59521484375
2023-01-20T22:18:21.666Z,21.9970703125
2023-01-20T22:28:24.328Z,22.705078125
2023-01-20T22:38:21.583Z,22.998046875
2023-01-20T22:48:21.432Z,25.6103515625
2023-01-20T22:58:21.342Z,26.3916015625
2023-01-20T23:08:21.293Z,27.197265625
2023-01-20T23:18:21.281Z,26.1962890625
2023-01-20T23:28:21.112Z,25
2023-01-20T23:38:21.040Z,27.197265625
2023-01-20T23:48:21.011Z,27.197265625
2023-01-20T23:58:20.897Z,28.1005859375
